Time;durP1;ratioP1;P1;durP2;ratioP2;P2;SDS_P1;SDS_P2;PMS_P1;PMS_P2;Temp;Humidity;BMP_temperature;BMP_pressure;BME280_temperature;BME280_humidity;BME280_pressure;Samples;Min_cycle;Max_cycle;Signal;HPM_P1;HPM_P2
2022/03/17 00:00:57;;;;;;;23.92;14.30;;;;;;;11.56;56.90;100279.78;4902976;29;20032;-80
2022/03/17 00:03:23;;;;;;;24.73;13.52;;;;;;;11.54;56.57;100280.03;4903362;29;20040;-79
2022/03/17 00:05:48;;;;;;;24.85;14.65;;;;;;;11.32;57.49;100280.94;4885652;29;20048;-80
2022/03/17 00:08:16;;;;;;;26.70;15.07;;;;;;;11.26;58.00;100267.47;4904293;29;20096;-79
2022/03/17 00:10:42;;;;;;;22.52;13.50;;;;;;;11.44;57.40;100283.50;4902362;29;20474;-80
2022/03/17 00:13:07;;;;;;;30.23;15.73;;;;;;;11.38;57.46;100284.53;4886578;29;20043;-79
2022/03/17 00:15:33;;;;;;;23.48;14.38;;;;;;;11.80;56.39;100287.63;4902489;29;20040;-80
2022/03/17 00:17:58;;;;;;;24.27;12.77;;;;;;;12.02;55.88;100289.47;4921716;29;20090;-80
2022/03/17 00:20:24;;;;;;;24.02;13.23;;;;;;;11.82;56.38;100290.13;4909556;29;20066;-80
2022/03/17 00:22:50;;;;;;;25.20;13.68;;;;;;;12.00;55.62;100300.63;4902764;29;20036;-78
2022/03/17 00:25:16;;;;;;;23.15;12.75;;;;;;;11.90;55.65;100300.53;4903357;29;20372;-80
2022/03/17 00:28:00;;;;;;;25.33;13.25;;;;;;;12.01;55.69;100326.06;4902374;29;20048;-79
2022/03/17 00:30:26;;;;;;;20.13;12.85;;;;;;;11.89;56.05;100305.22;4903263;29;20032;-80
2022/03/17 00:32:52;;;;;;;27.33;15.68;;;;;;;12.03;55.64;100324.72;4902200;29;20091;-81
2022/03/17 00:35:35;;;;;;;23.63;12.80;;;;;;;11.81;56.10;100313.88;4902869;29;20139;-80
2022/03/17 00:38:10;;;;;;;23.98;12.68;;;;;;;11.86;55.79;100333.03;4903376;29;20071;-80
2022/03/17 00:40:37;;;;;;;26.15;14.45;;;;;;;11.76;56.22;100320.09;4906373;29;20451;-79
2022/03/17 00:43:04;;;;;;;27.48;15.05;;;;;;;11.70;56.51;100314.84;4903254;29;20163;-80
2022/03/17 00:45:30;;;;;;;24.05;14.35;;;;;;;11.77;56.77;100313.56;4900893;29;20028;-80
2022/03/17 00:47:55;;;;;;;29.17;15.27;;;;;;;11.51;57.00;100313.31;4902703;29;20036;-80
2022/03/17 00:50:21;;;;;;;24.60;13.85;;;;;;;11.80;56.38;100309.47;4899651;29;20047;-80
2022/03/17 00:52:46;;;;;;;22.48;12.93;;;;;;;11.77;55.89;100316.31;4903269;29;20059;-80
2022/03/17 00:55:13;;;;;;;24.88;13.93;;;;;;;11.83;55.80;100308.16;4902811;29;20432;-80
2022/03/17 00:57:39;;;;;;;26.00;12.93;;;;;;;11.59;56.89;100308.47;4902224;29;20140;-80
2022/03/17 01:00:06;;;;;;;26.05;14.95;;;;;;;11.74;55.92;100299.59;4885732;29;20126;-79
2022/03/17 01:02:32;;;;;;;47.25;17.15;;;;;;;11.58;56.93;100302.19;4901427;29;20496;-80
2022/03/17 01:04:57;;;;;;;24.60;15.13;;;;;;;11.71;56.48;100302.84;4902771;29;20108;-79
2022/03/17 01:07:22;;;;;;;26.27;16.25;;;;;;;11.52;57.39;100293.13;4902206;29;20143;-79
2022/03/17 01:09:48;;;;;;;25.70;17.45;;;;;;;11.55;57.04;100292.59;4902504;29;20442;-80
2022/03/17 01:12:13;;;;;;;23.92;14.27;;;;;;;11.64;56.89;100278.47;4902161;29;20142;-80
2022/03/17 01:14:38;;;;;;;30.02;15.25;;;;;;;11.56;57.09;100294.25;4902006;29;20349;-78
2022/03/17 01:17:04;;;;;;;25.35;14.05;;;;;;;11.59;56.89;100294.81;4906284;29;20467;-79
2022/03/17 01:19:29;;;;;;;24.70;14.35;;;;;;;11.62;57.13;100284.19;4916532;29;20083;-79
2022/03/17 01:21:54;;;;;;;32.50;15.57;;;;;;;11.29;57.64;100284.16;4902798;29;20582;-80
2022/03/17 01:24:20;;;;;;;26.40;15.25;;;;;;;11.41;57.57;100285.94;4900973;29;20016;-80
2022/03/17 01:26:46;;;;;;;26.33;14.95;;;;;;;11.51;57.13;100283.28;4921984;29;20060;-79
2022/03/17 01:29:12;;;;;;;22.20;13.80;;;;;;;11.28;57.91;100281.69;4915295;29;20188;-80
2022/03/17 01:31:38;;;;;;;29.40;16.88;;;;;;;11.24;57.94;100275.91;4901388;29;20403;-80
2022/03/17 01:34:03;;;;;;;25.58;15.00;;;;;;;11.66;56.70;100281.78;4900918;29;20032;-80
2022/03/17 01:36:29;;;;;;;25.90;14.38;;;;;;;11.56;57.28;100279.78;4884087;29;20035;-79
2022/03/17 01:38:54;;;;;;;28.63;14.40;;;;;;;11.54;56.96;100280.03;4903314;29;20024;-80
2022/03/17 01:41:20;;;;;;;24.13;15.07;;;;;;;11.59;56.68;100281.16;4900073;29;20338;-79
2022/03/17 01:43:45;;;;;;;29.60;16.75;;;;;;;11.67;56.93;100275.25;4902495;29;20047;-80
2022/03/17 01:46:14;;;;;;;28.73;14.93;;;;;;;11.67;56.71;100273.31;4900612;29;20025;-80
2022/03/17 01:48:39;;;;;;;27.00;15.52;;;;;;;11.59;56.91;100273.81;4902625;29;20032;-80
2022/03/17 01:51:05;;;;;;;28.50;16.75;;;;;;;11.51;57.28;100275.06;4901142;29;20054;-80
2022/03/17 01:53:30;;;;;;;29.63;15.23;;;;;;;11.60;57.14;100274.63;4901426;29;20095;-80
2022/03/17 01:55:58;;;;;;;25.80;14.50;;;;;;;11.69;56.91;100278.53;4901685;29;20032;-80
2022/03/17 01:58:24;;;;;;;28.00;16.15;;;;;;;11.61;56.85;100273.53;4900768;29;20300;-80
2022/03/17 02:00:50;;;;;;;33.22;14.52;;;;;;;11.54;56.53;100274.56;4902731;29;20682;-81
2022/03/17 02:03:15;;;;;;;28.45;17.15;;;;;;;11.59;57.02;100270.25;4903770;29;20198;-79
2022/03/17 02:05:40;;;;;;;40.70;16.52;;;;;;;11.60;57.12;100266.41;4906441;29;20032;-77
2022/03/17 02:08:09;;;;;;;24.83;14.90;;;;;;;11.59;56.93;100264.78;4905248;29;20031;-81
2022/03/17 02:13:08;;;;;;;29.42;15.48;;;;;;;11.52;57.11;100263.09;4904075;29;20273;-80
2022/03/17 02:13:21;;;;;;;29.23;17.83;;;;;;;11.65;56.99;100266.47;4905266;29;20643;-80
2022/03/17 02:15:54;;;;;;;27.33;17.42;;;;;;;11.52;57.09;100260.34;4904405;29;20039;-80
2022/03/17 02:18:19;;;;;;;27.20;16.02;;;;;;;11.54;57.12;100280.03;4924387;29;20487;-80
2022/03/17 02:20:45;;;;;;;24.65;14.40;;;;;;;11.72;56.47;100264.34;4908813;29;20044;-80
2022/03/17 02:25:59;;;;;;;;;;;;;;;11.30;57.76;100263.97;4905616;29;20046;-80
2022/03/17 02:28:27;;;;;;;25.20;14.50;;;;;;;11.57;57.25;100262.31;4886449;29;19915;-80
2022/03/17 02:30:53;;;;;;;25.80;15.05;;;;;;;11.49;56.98;100266.31;4905013;29;20161;-79
2022/03/17 02:33:19;;;;;;;28.38;15.75;;;;;;;11.53;57.38;100267.44;4903465;29;20084;-80
2022/03/17 02:35:46;;;;;;;26.40;15.27;;;;;;;11.58;56.87;100268.59;4888499;29;20388;-80
2022/03/17 02:38:14;;;;;;;30.13;16.10;;;;;;;11.56;57.07;100260.66;4903817;29;20031;-80
2022/03/17 02:40:41;;;;;;;28.80;15.35;;;;;;;11.61;56.83;100268.09;4904177;29;20040;-81
2022/03/17 02:43:08;;;;;;;27.77;15.32;;;;;;;11.62;57.08;100275.19;4904590;29;20092;-80
2022/03/17 02:45:34;;;;;;;24.05;13.80;;;;;;;11.66;56.88;100274.41;4904454;29;20102;-80
2022/03/17 02:48:00;;;;;;;26.35;14.65;;;;;;;11.48;57.13;100267.41;4905849;29;20434;-79
2022/03/17 02:50:25;;;;;;;27.58;16.77;;;;;;;11.58;56.78;100266.69;4903492;29;20055;-79
2022/03/17 02:52:51;;;;;;;29.08;17.45;;;;;;;11.58;56.85;100260.41;4905695;29;20449;-79
2022/03/17 02:55:17;;;;;;;23.85;14.10;;;;;;;11.60;56.89;100271.88;4903179;29;20111;-78
2022/03/17 02:57:48;;;;;;;25.65;15.63;;;;;;;11.37;57.57;100265.69;4887665;29;20071;-80
2022/03/17 03:00:14;;;;;;;28.58;16.50;;;;;;;11.32;57.26;100278.19;4903271;29;20074;-80
2022/03/17 03:02:40;;;;;;;27.73;14.98;;;;;;;11.54;57.28;100263.66;4904359;29;20024;-79
2022/03/17 03:05:06;;;;;;;22.75;14.10;;;;;;;11.31;57.56;100271.06;4905168;29;20024;-79
2022/03/17 03:07:32;;;;;;;29.23;14.80;;;;;;;11.40;57.38;100260.53;4902743;29;20458;-80
2022/03/17 03:09:58;;;;;;;27.52;14.88;;;;;;;11.59;57.32;100272.97;4904902;29;20028;-80
2022/03/17 03:12:24;;;;;;;27.50;15.30;;;;;;;11.44;57.33;100274.47;4921506;29;20032;-80
2022/03/17 03:14:49;;;;;;;30.08;16.67;;;;;;;11.56;56.88;100283.34;4923430;29;20031;-80
2022/03/17 03:17:15;;;;;;;20.98;13.13;;;;;;;11.76;56.97;100294.69;4911639;29;20067;-80
2022/03/17 03:19:40;;;;;;;27.25;14.20;;;;;;;11.85;56.59;100292.31;4917674;29;20131;-80
2022/03/17 03:22:06;;;;;;;28.53;15.23;;;;;;;11.72;57.01;100288.94;4887356;29;20110;-80
2022/03/17 03:24:31;;;;;;;29.15;14.90;;;;;;;11.66;57.38;100298.16;4903608;29;20266;-80
2022/03/17 03:26:56;;;;;;;24.70;14.65;;;;;;;11.53;57.51;100300.22;4904485;29;20485;-80
2022/03/17 03:29:28;;;;;;;28.63;15.90;;;;;;;11.77;57.02;100293.63;4901638;29;20032;-80
2022/03/17 03:31:55;;;;;;;34.13;17.85;;;;;;;11.60;57.51;100296.47;4905199;29;20496;-79
2022/03/17 03:34:21;;;;;;;27.80;14.57;;;;;;;11.65;57.36;100296.53;4903031;29;20040;-80
2022/03/17 03:39:33;;;;;;;26.30;14.60;;;;;;;11.55;57.27;100314.44;4904355;29;20075;-80
2022/03/17 03:41:58;;;;;;;24.65;14.68;;;;;;;11.67;57.28;100318.94;4902762;29;20511;-80
2022/03/17 03:44:24;;;;;;;24.45;14.15;;;;;;;11.65;57.16;100318.38;4904345;29;20059;-81
2022/03/17 03:46:49;;;;;;;26.85;15.05;;;;;;;11.55;57.70;100322.63;4902146;29;20036;-81
2022/03/17 03:49:14;;;;;;;25.83;14.18;;;;;;;11.54;57.48;100318.28;4904272;29;20032;-80
2022/03/17 03:51:40;;;;;;;30.90;16.65;;;;;;;11.60;57.38;100321.88;4902591;29;20071;-79
2022/03/17 03:54:17;;;;;;;30.02;17.33;;;;;;;11.60;57.73;100316.41;4903406;29;20043;-79
2022/03/17 03:56:51;;;;;;;32.25;16.48;;;;;;;11.44;57.92;100323.63;4903367;29;20032;-80
2022/03/17 03:59:20;;;;;;;27.98;16.15;;;;;;;11.57;57.71;100322.41;4893814;29;20024;-80
2022/03/17 04:01:46;;;;;;;25.63;14.40;;;;;;;11.52;57.65;100331.34;4886388;29;20289;-80
2022/03/17 04:04:20;;;;;;;23.65;13.73;;;;;;;11.61;57.48;100325.44;4901441;29;20020;-80
2022/03/17 04:06:48;;;;;;;27.45;15.85;;;;;;;11.23;58.31;100338.97;4904541;29;20127;-79
2022/03/17 04:09:15;;;;;;;24.38;15.55;;;;;;;11.50;57.75;100344.44;4902896;29;20036;-79
2022/03/17 04:11:41;;;;;;;26.77;14.90;;;;;;;11.42;57.93;100350.34;4902515;29;20100;-80
2022/03/17 04:14:07;;;;;;;25.08;14.73;;;;;;;11.55;57.69;100363.59;4903040;29;20047;-80
2022/03/17 04:16:33;;;;;;;31.67;17.20;;;;;;;11.49;57.77;100353.69;4904596;29;20127;-80
2022/03/17 04:18:58;;;;;;;24.95;14.25;;;;;;;11.63;57.64;100364.22;4916674;29;20396;-79
2022/03/17 04:21:23;;;;;;;29.83;17.40;;;;;;;11.58;57.70;100362.25;4902215;29;20423;-79
2022/03/17 04:23:50;;;;;;;25.67;13.63;;;;;;;11.61;57.80;100360.94;4902790;29;20283;-79
2022/03/17 04:26:16;;;;;;;32.13;17.67;;;;;;;11.18;58.53;100369.75;4902104;29;20084;-78
2022/03/17 04:28:41;;;;;;;30.35;16.42;;;;;;;11.47;58.43;100377.69;4903005;29;20028;-79
2022/03/17 04:31:06;;;;;;;27.92;15.88;;;;;;;11.49;58.45;100378.25;4903116;29;20115;-80
2022/03/17 04:33:31;;;;;;;36.38;17.98;;;;;;;11.37;59.19;100375.69;4902353;29;20131;-80
2022/03/17 04:35:57;;;;;;;26.77;15.25;;;;;;;11.40;59.59;100375.19;4886827;29;20047;-79
2022/03/17 04:38:22;;;;;;;28.53;16.53;;;;;;;11.40;59.32;100377.09;4902291;29;20031;-79
2022/03/17 04:40:49;;;;;;;26.93;15.97;;;;;;;11.31;60.59;100379.44;4903431;29;20346;-80
2022/03/17 04:43:19;;;;;;;27.60;15.60;;;;;;;11.38;59.92;100398.34;4902066;29;20607;-80
2022/03/17 04:45:46;;;;;;;30.20;17.10;;;;;;;11.33;60.27;100393.66;4903634;29;20062;-80
2022/03/17 04:48:12;;;;;;;35.47;18.10;;;;;;;11.36;60.04;100393.16;4898364;29;20039;-80
2022/03/17 04:50:37;;;;;;;29.58;17.05;;;;;;;11.26;60.47;100403.94;4894751;29;20028;-80
2022/03/17 04:53:27;;;;;;;30.50;19.13;;;;;;;11.37;59.72;100399.44;4903697;29;20100;-80
2022/03/17 04:55:53;;;;;;;29.10;17.63;;;;;;;10.96;60.51;100412.28;4901326;29;20032;-79
2022/03/17 04:58:18;;;;;;;35.50;15.38;;;;;;;11.16;60.52;100415.56;4903509;29;20059;-80
2022/03/17 05:00:43;;;;;;;28.58;15.35;;;;;;;11.20;60.37;100416.69;4901361;29;20139;-80
2022/03/17 05:03:10;;;;;;;34.80;18.00;;;;;;;11.14;60.88;100417.72;4903193;29;20514;-80
2022/03/17 05:05:35;;;;;;;31.55;15.80;;;;;;;11.26;60.80;100437.53;4902736;29;20263;-80
2022/03/17 05:08:01;;;;;;;33.33;18.25;;;;;;;11.36;60.62;100433.28;4902631;29;20035;-79
2022/03/17 05:10:28;;;;;;;28.90;15.98;;;;;;;11.28;61.92;100446.28;4902874;29;20032;-80
2022/03/17 05:12:55;;;;;;;38.50;19.70;;;;;;;11.23;62.46;100440.75;4901100;29;20088;-80
2022/03/17 05:15:20;;;;;;;32.35;17.35;;;;;;;11.18;63.41;100451.59;4903918;29;20483;-80
2022/03/17 05:17:47;;;;;;;31.55;17.42;;;;;;;11.18;64.15;100454.34;4919545;29;20042;-80
2022/03/17 05:20:13;;;;;;;31.40;15.65;;;;;;;11.07;64.82;100462.38;4893180;29;20047;-80
2022/03/17 05:22:42;;;;;;;29.10;17.33;;;;;;;11.25;64.73;100473.28;4916756;29;20257;-80
2022/03/17 05:25:11;;;;;;;28.25;17.67;;;;;;;11.23;64.55;100470.78;4918799;29;20043;-80
2022/03/17 05:27:41;;;;;;;33.30;18.48;;;;;;;11.15;65.84;100469.31;4927038;29;20027;-80
2022/03/17 05:30:10;;;;;;;34.58;19.80;;;;;;;11.14;66.62;100475.03;4927373;29;20778;-81
2022/03/17 05:32:36;;;;;;;36.75;20.38;;;;;;;10.88;67.58;100474.66;4926065;29;20093;-79
2022/03/17 05:35:02;;;;;;;32.50;19.13;;;;;;;10.80;68.69;100484.88;4910405;29;20030;-80
2022/03/17 05:37:41;;;;;;;32.65;17.67;;;;;;;11.05;67.73;100480.91;4930125;29;20028;-81
2022/03/17 05:40:15;;;;;;;38.95;20.75;;;;;;;10.97;69.01;100490.34;4928097;29;20057;-80
2022/03/17 05:42:45;;;;;;;;;;;;;;;10.97;68.65;100495.81;4924874;29;20147;-80
2022/03/17 05:45:11;;;;;;;31.10;18.90;;;;;;;10.84;69.52;100502.41;4929328;29;19923;-78
2022/03/17 05:47:38;;;;;;;32.53;18.95;;;;;;;10.96;69.67;100509.69;4930295;29;20038;-80
2022/03/17 05:50:05;;;;;;;33.63;20.50;;;;;;;10.98;70.37;100518.47;4915138;29;20501;-80
2022/03/17 05:52:31;;;;;;;29.35;17.95;;;;;;;10.83;71.41;100530.78;4920691;29;20646;-78
2022/03/17 05:54:57;;;;;;;36.03;19.50;;;;;;;10.76;72.20;100532.81;4922363;29;20061;-80
2022/03/17 05:57:22;;;;;;;35.75;22.48;;;;;;;10.59;72.89;100536.38;4921534;29;20589;-79
2022/03/17 05:59:47;;;;;;;36.75;20.27;;;;;;;10.71;73.04;100535.47;4920656;29;20031;-79
2022/03/17 06:02:13;;;;;;;35.42;19.15;;;;;;;10.51;73.87;100547.69;4922459;29;20138;-80
2022/03/17 06:04:39;;;;;;;40.37;20.83;;;;;;;10.72;73.22;100554.31;4920365;29;20459;-78
2022/03/17 06:07:04;;;;;;;35.67;19.65;;;;;;;10.59;74.52;100563.66;4903537;29;20283;-80
2022/03/17 06:09:30;;;;;;;38.58;20.20;;;;;;;10.39;75.75;100567.59;4904926;29;20596;-80
2022/03/17 06:11:57;;;;;;;41.20;21.83;;;;;;;10.67;75.11;100572.50;4922563;29;20032;-80
2022/03/17 06:14:22;;;;;;;36.85;21.23;;;;;;;10.64;75.80;100583.91;4903192;29;20290;-80
2022/03/17 06:16:48;;;;;;;34.15;21.20;;;;;;;10.60;75.52;100583.53;4925695;29;20442;-80
2022/03/17 06:19:13;;;;;;;46.20;23.35;;;;;;;10.52;76.24;100592.94;4921549;29;20024;-78
2022/03/17 06:21:39;;;;;;;36.07;20.53;;;;;;;10.58;76.61;100597.44;4920258;29;20619;-79
2022/03/17 06:24:04;;;;;;;39.30;20.60;;;;;;;10.34;77.99;100600.22;4921974;29;20301;-79
2022/03/17 06:26:29;;;;;;;31.13;18.45;;;;;;;10.42;78.48;100609.91;4920278;29;20028;-80
2022/03/17 06:28:55;;;;;;;40.43;22.63;;;;;;;10.48;78.35;100613.56;4922705;29;20139;-79
2022/03/17 06:31:20;;;;;;;38.95;22.77;;;;;;;10.54;78.35;100623.53;4920478;29;20297;-79
2022/03/17 06:33:46;;;;;;;39.95;23.20;;;;;;;10.65;77.96;100626.44;4921198;29;20027;-79
2022/03/17 06:36:26;;;;;;;32.90;18.23;;;;;;;10.60;78.15;100632.63;4916844;29;20062;-79
2022/03/17 06:38:51;;;;;;;37.47;19.35;;;;;;;10.46;79.26;100637.50;4925308;29;20031;-79
2022/03/17 06:41:16;;;;;;;46.90;21.53;;;;;;;10.40;79.90;100650.22;4919243;29;20487;-80
2022/03/17 06:43:41;;;;;;;38.88;22.90;;;;;;;10.35;80.01;100664.56;4922884;29;20274;-80
2022/03/17 06:46:08;;;;;;;35.43;20.87;;;;;;;10.33;80.45;100663.97;4924961;29;20039;-79
2022/03/17 06:48:33;;;;;;;40.65;20.40;;;;;;;10.14;81.60;100668.78;4923314;29;21075;-79
2022/03/17 06:51:00;;;;;;;35.72;20.70;;;;;;;10.22;82.16;100675.75;4928992;29;20114;-78
2022/03/17 06:53:25;;;;;;;34.10;22.20;;;;;;;10.48;81.08;100679.00;4926430;29;20090;-79
2022/03/17 06:55:50;;;;;;;38.70;21.97;;;;;;;10.03;83.32;100674.00;4926166;29;20031;-79
2022/03/17 06:58:15;;;;;;;46.45;26.27;;;;;;;9.74;85.20;100692.13;4923821;29;20277;-79
2022/03/17 07:00:41;;;;;;;38.40;22.35;;;;;;;10.22;83.94;100698.38;4922248;29;20821;-80
2022/03/17 07:03:06;;;;;;;36.85;21.05;;;;;;;10.21;84.00;100709.53;4924156;29;20059;-79
2022/03/17 07:05:31;;;;;;;35.10;18.03;;;;;;;10.18;83.90;100712.72;4921989;29;20586;-78
2022/03/17 07:07:56;;;;;;;33.77;18.03;;;;;;;10.08;84.36;100719.59;4924700;29;20251;-78
2022/03/17 07:10:22;;;;;;;40.07;22.53;;;;;;;9.55;85.88;100733.91;4916513;29;20780;-80
2022/03/17 07:12:47;;;;;;;31.17;17.75;;;;;;;9.84;85.21;100730.50;4923386;29;20298;-81
2022/03/17 07:15:13;;;;;;;30.03;17.83;;;;;;;10.01;82.67;100729.78;4923108;29;20066;-81
2022/03/17 07:17:40;;;;;;;33.58;17.70;;;;;;;10.00;82.59;100745.31;4920969;29;20321;-79
2022/03/17 07:20:09;;;;;;;26.70;15.13;;;;;;;9.98;81.89;100752.91;4925566;29;20156;-79
2022/03/17 07:22:35;;;;;;;27.35;13.85;;;;;;;10.01;81.34;100766.03;4922630;29;20055;-79
2022/03/17 07:25:01;;;;;;;26.48;13.38;;;;;;;9.93;81.51;100777.28;4923983;29;20115;-79
2022/03/17 07:27:26;;;;;;;27.75;13.77;;;;;;;9.89;81.77;100782.38;4923284;29;20573;-79
2022/03/17 07:29:51;;;;;;;31.08;16.92;;;;;;;9.25;84.13;100785.66;4924000;29;20522;-80
2022/03/17 07:32:18;;;;;;;29.77;16.15;;;;;;;9.43;83.79;100785.59;4923051;29;20071;-81
2022/03/17 07:34:45;;;;;;;25.55;15.90;;;;;;;9.52;83.72;100790.72;4921991;29;20032;-81
2022/03/17 07:37:10;;;;;;;32.35;16.83;;;;;;;9.64;82.69;100796.19;4923809;29;20123;-81
2022/03/17 07:39:36;;;;;;;26.83;16.00;;;;;;;9.19;83.98;100809.19;4921530;29;20136;-80
2022/03/17 07:42:04;;;;;;;33.42;17.60;;;;;;;9.26;83.92;100814.50;4923888;29;20046;-81
2022/03/17 07:44:29;;;;;;;28.17;14.38;;;;;;;9.60;82.22;100809.41;4921592;29;20036;-81
2022/03/17 07:47:08;;;;;;;20.67;12.15;;;;;;;9.58;81.59;100815.09;4923057;29;20031;-81
2022/03/17 07:49:38;;;;;;;23.77;11.48;;;;;;;9.40;82.60;100834.22;4921874;29;20027;-81
2022/03/17 07:52:06;;;;;;;25.77;10.98;;;;;;;9.43;82.57;100836.47;4912467;29;20055;-81
2022/03/17 07:54:33;;;;;;;18.77;8.88;;;;;;;9.53;81.60;100834.03;4923662;29;20032;-80
2022/03/17 07:56:59;;;;;;;19.88;10.95;;;;;;;9.55;81.76;100844.69;4922289;29;20028;-84
2022/03/17 07:59:25;;;;;;;25.73;9.32;;;;;;;9.57;82.06;100845.28;4921391;29;20039;-85
2022/03/17 08:01:51;;;;;;;15.68;8.00;;;;;;;9.53;81.62;100852.25;4922084;29;20043;-85
2022/03/17 08:04:17;;;;;;;17.73;8.75;;;;;;;9.33;82.87;100867.81;4923356;29;20280;-83
2022/03/17 08:06:42;;;;;;;15.35;8.52;;;;;;;9.30;81.49;100870.13;4901947;29;20043;-85
2022/03/17 08:09:07;;;;;;;16.98;9.00;;;;;;;9.38;82.12;100877.16;4922863;29;20180;-84
2022/03/17 08:11:33;;;;;;;17.07;8.30;;;;;;;9.25;81.78;100883.63;4922876;29;20431;-85
2022/03/17 08:13:58;;;;;;;17.80;9.35;;;;;;;9.28;81.98;100892.16;4904746;29;20378;-85
2022/03/17 08:16:23;;;;;;;21.13;8.52;;;;;;;9.15;81.66;100892.31;4928753;29;20027;-85
2022/03/17 08:18:49;;;;;;;16.30;9.82;;;;;;;9.19;80.20;100898.97;4926522;29;20067;-85
2022/03/17 08:21:15;;;;;;;18.10;8.25;;;;;;;8.91;80.47;100906.56;4928477;29;20541;-84
2022/03/17 08:23:41;;;;;;;17.63;7.15;;;;;;;9.20;79.68;100922.38;4924588;29;20036;-86
2022/03/17 08:26:06;;;;;;;13.57;7.43;;;;;;;9.12;79.14;100918.06;4924097;29;20032;-84
2022/03/17 08:28:31;;;;;;;14.43;7.90;;;;;;;9.18;78.19;100922.63;4923512;29;20027;-85
2022/03/17 08:30:57;;;;;;;16.23;6.30;;;;;;;8.97;78.96;100930.16;4922672;29;20805;-84
2022/03/17 08:33:23;;;;;;;16.38;8.10;;;;;;;9.20;77.83;100928.66;4924045;29;20083;-84
2022/03/17 08:35:48;;;;;;;27.27;7.13;;;;;;;9.01;77.59;100944.13;4922575;29;20476;-83
2022/03/17 08:38:14;;;;;;;28.30;9.35;;;;;;;9.28;77.88;100948.44;4923331;29;20188;-85
2022/03/17 08:43:42;;;;;;;14.18;6.75;;;;;;;9.36;77.31;100947.34;4922638;29;20474;-84
2022/03/17 08:51:36;;;;;;;11.15;4.63;;;;;;;9.49;73.77;100979.00;4905087;29;20418;-86
2022/03/17 08:54:01;;;;;;;9.27;4.22;;;;;;;9.45;72.78;100973.19;4903261;29;20293;-85
2022/03/17 08:56:30;;;;;;;10.38;4.25;;;;;;;9.65;73.66;100983.84;4903972;29;20258;-85
2022/03/17 08:58:55;;;;;;;6.72;3.58;;;;;;;9.39;73.76;100983.09;4903340;29;20074;-85
2022/03/17 09:01:20;;;;;;;8.50;3.35;;;;;;;9.40;73.83;100986.63;4920283;29;20314;-85
2022/03/17 09:03:46;;;;;;;6.50;3.17;;;;;;;9.35;73.62;101000.94;4923007;29;20575;-85
2022/03/17 09:06:12;;;;;;;7.57;3.10;;;;;;;9.49;73.52;101000.78;4904827;29;20031;-85
2022/03/17 09:08:40;;;;;;;6.93;2.85;;;;;;;9.48;73.05;101010.03;4925735;29;20110;-85
2022/03/17 09:11:05;;;;;;;6.93;2.67;;;;;;;9.11;73.45;101011.66;4920517;29;20048;-84
2022/03/17 09:13:32;;;;;;;8.15;2.08;;;;;;;9.21;73.47;101011.94;4921354;29;20037;-84
2022/03/17 09:15:59;;;;;;;6.90;3.33;;;;;;;9.20;73.65;101025.78;4921775;29;20039;-85
2022/03/17 09:18:27;;;;;;;9.85;4.50;;;;;;;8.98;73.39;101035.19;4941205;29;20325;-84
2022/03/17 09:20:52;;;;;;;6.53;2.97;;;;;;;8.91;73.13;101039.84;4912446;29;20441;-85
2022/03/17 09:23:17;;;;;;;7.82;3.97;;;;;;;9.26;72.76;101034.94;4902714;29;20036;-85
2022/03/17 09:25:43;;;;;;;5.63;2.65;;;;;;;9.05;74.04;101051.44;4903669;29;20083;-85
2022/03/17 09:28:08;;;;;;;8.77;3.15;;;;;;;9.15;72.04;101042.81;4902393;29;20227;-85
2022/03/17 09:30:34;;;;;;;6.32;2.30;;;;;;;9.26;72.63;101059.41;4902389;29;20479;-84
2022/03/17 09:33:01;;;;;;;9.38;4.00;;;;;;;9.24;72.51;101059.66;4902300;29;20036;-84
2022/03/17 09:35:26;;;;;;;7.85;2.53;;;;;;;9.37;71.63;101055.13;4902944;29;20215;-84
2022/03/17 09:37:52;;;;;;;10.32;2.72;;;;;;;9.37;72.36;101066.03;4903332;29;20039;-85
2022/03/17 09:40:17;;;;;;;8.15;3.15;;;;;;;9.33;71.94;101065.66;4901682;29;20699;-84
2022/03/17 09:42:43;;;;;;;6.70;3.25;;;;;;;9.27;72.15;101074.72;4902654;29;20051;-85
2022/03/17 09:45:10;;;;;;;10.98;3.10;;;;;;;9.29;71.27;101075.31;4900769;29;20319;-85
2022/03/17 09:50:22;;;;;;;6.28;2.53;;;;;;;9.18;73.51;101074.16;4902904;29;20063;-85
2022/03/17 09:52:47;;;;;;;11.67;5.63;;;;;;;9.38;72.44;101090.28;4906913;29;20035;-85
2022/03/17 09:55:13;;;;;;;6.60;2.38;;;;;;;9.36;71.95;101075.25;4899449;29;20287;-85
2022/03/17 09:57:40;;;;;;;10.25;3.05;;;;;;;9.27;72.25;101085.59;4883469;29;20028;-87
2022/03/17 10:00:07;;;;;;;7.70;2.60;;;;;;;9.31;71.59;101097.69;4892477;29;20043;-84
2022/03/17 10:02:34;;;;;;;5.95;2.88;;;;;;;9.48;71.52;101102.56;4902249;29;20027;-84
2022/03/17 10:05:01;;;;;;;8.65;3.92;;;;;;;9.46;71.43;101111.78;4903215;29;20083;-84
2022/03/17 10:07:26;;;;;;;11.65;4.13;;;;;;;9.22;72.69;101106.16;4902175;29;20032;-83
2022/03/17 10:09:51;;;;;;;12.45;6.47;;;;;;;9.42;71.94;101113.28;4902541;29;20028;-81
2022/03/17 10:12:20;;;;;;;10.47;4.50;;;;;;;9.29;71.94;101114.25;4902316;29;20152;-83
2022/03/17 10:14:50;;;;;;;11.82;3.20;;;;;;;9.24;72.01;101122.25;4901600;29;20258;-83
2022/03/17 10:17:36;;;;;;;15.10;5.13;;;;;;;8.96;73.63;101128.94;4906312;29;20492;-83
2022/03/17 10:20:19;;;;;;;10.45;3.45;;;;;;;8.78;73.48;101129.69;4909163;29;20483;-83
2022/03/17 10:22:47;;;;;;;7.03;3.28;;;;;;;9.26;73.07;101135.63;4924602;29;20195;-84
2022/03/17 10:25:17;;;;;;;12.20;4.30;;;;;;;9.43;72.23;101133.19;4920335;29;20028;-82
2022/03/17 10:27:49;;;;;;;13.95;4.15;;;;;;;9.36;72.10;101141.41;4923317;29;20042;-84
2022/03/17 10:30:14;;;;;;;9.93;4.75;;;;;;;9.43;71.86;101149.53;4898031;29;20437;-84
2022/03/17 10:32:56;;;;;;;8.43;3.60;;;;;;;9.42;71.09;101159.56;4923327;29;20048;-83
2022/03/17 10:35:34;;;;;;;9.73;3.60;;;;;;;9.46;71.44;101162.66;4907341;29;20031;-82
2022/03/17 10:38:17;;;;;;;11.05;3.00;;;;;;;9.43;71.58;101168.56;4924826;29;20050;-83
2022/03/17 10:40:45;;;;;;;9.50;3.80;;;;;;;9.19;71.89;101171.88;4918222;29;20561;-83
2022/03/17 10:43:29;;;;;;;9.23;4.18;;;;;;;9.41;71.50;101184.28;4924816;29;20051;-83
2022/03/17 10:46:09;;;;;;;;;;;;;;;9.33;71.04;101179.97;4925004;29;20068;-83
2022/03/17 10:48:51;;;;;;;5.18;2.60;;;;;;;9.33;71.53;101188.13;4924284;29;19919;-81
2022/03/17 10:51:40;;;;;;;7.88;3.78;;;;;;;9.50;70.87;101195.75;4921898;29;20600;-84
2022/03/17 10:54:09;;;;;;;8.48;3.00;;;;;;;9.41;70.76;101198.75;4920348;29;20483;-83
2022/03/17 10:56:37;;;;;;;8.10;3.47;;;;;;;9.30;71.02;101196.72;4924501;29;20047;-84
2022/03/17 10:59:02;;;;;;;9.07;3.30;;;;;;;9.51;69.69;101206.41;4906991;29;20115;-84
2022/03/17 11:01:45;;;;;;;7.22;2.70;;;;;;;9.69;69.35;101205.63;4922856;29;20119;-84
2022/03/17 11:04:11;;;;;;;8.45;3.47;;;;;;;9.77;69.00;101207.22;4924848;29;20378;-82
2022/03/17 11:06:38;;;;;;;16.88;4.43;;;;;;;9.72;68.70;101208.97;4923914;29;20173;-83
2022/03/17 11:09:05;;;;;;;9.52;4.88;;;;;;;9.68;69.27;101212.13;4923982;29;20024;-84
2022/03/17 11:11:31;;;;;;;10.40;4.03;;;;;;;9.65;69.25;101218.03;4922655;29;20547;-82
2022/03/17 11:13:58;;;;;;;10.32;3.72;;;;;;;9.67;69.45;101226.81;4924718;29;20130;-83
2022/03/17 11:16:32;;;;;;;13.15;4.78;;;;;;;9.47;69.28;101221.53;4923614;29;20441;-84
2022/03/17 11:18:58;;;;;;;15.50;5.47;;;;;;;9.49;68.44;101224.84;4924859;29;20122;-85
2022/03/17 11:21:29;;;;;;;8.73;3.42;;;;;;;9.62;69.36;101234.78;4923721;29;20515;-84
2022/03/17 11:23:56;;;;;;;14.45;4.88;;;;;;;9.27;67.85;101222.50;4921662;29;20031;-84
2022/03/17 11:26:40;;;;;;;13.40;5.15;;;;;;;9.83;67.03;101231.88;4923697;29;20039;-84
2022/03/17 11:29:21;;;;;;;9.80;4.10;;;;;;;9.84;65.69;101231.69;4922900;29;20061;-84
2022/03/17 11:31:52;;;;;;;12.18;4.10;;;;;;;10.01;66.29;101231.09;4923655;29;20069;-83
2022/03/17 11:34:39;;;;;;;5.75;2.95;;;;;;;10.01;64.46;101237.38;4922034;29;20577;-82